sensor_id;sensor_type;location;lat;lon;timestamp;temperature;humidity
63407;SHT31;49543;45.892;10.838;2023-07-20T09:23:08;30.44;66.14
63407;SHT31;49543;45.892;10.838;2023-07-20T09:25:33;30.53;65.80
63407;SHT31;49543;45.892;10.838;2023-07-20T09:27:58;30.60;66.22
63407;SHT31;49543;45.892;10.838;2023-07-20T09:30:27;30.69;64.72
63407;SHT31;49543;45.892;10.838;2023-07-20T09:32:52;30.74;64.15
63407;SHT31;49543;45.892;10.838;2023-07-20T09:35:19;30.79;64.45
63407;SHT31;49543;45.892;10.838;2023-07-20T09:37:53;30.99;63.66
63407;SHT31;49543;45.892;10.838;2023-07-20T09:40:19;31.02;63.19
63407;SHT31;49543;45.892;10.838;2023-07-20T09:42:45;31.03;63.44
63407;SHT31;49543;45.892;10.838;2023-07-20T09:45:12;31.13;61.66
63407;SHT31;49543;45.892;10.838;2023-07-20T09:47:37;31.22;61.91
63407;SHT31;49543;45.892;10.838;2023-07-20T09:50:03;31.23;61.26
63407;SHT31;49543;45.892;10.838;2023-07-20T09:52:29;31.26;60.71
63407;SHT31;49543;45.892;10.838;2023-07-20T09:54:55;31.47;61.55
63407;SHT31;49543;45.892;10.838;2023-07-20T09:57:20;31.44;61.01
63407;SHT31;49543;45.892;10.838;2023-07-20T09:59:46;31.49;60.59
63407;SHT31;49543;45.892;10.838;2023-07-20T10:02:14;31.51;59.80
63407;SHT31;49543;45.892;10.838;2023-07-20T10:04:42;31.60;59.76
63407;SHT31;49543;45.892;10.838;2023-07-20T10:07:09;31.64;59.79
63407;SHT31;49543;45.892;10.838;2023-07-20T10:09:37;31.73;59.48
63407;SHT31;49543;45.892;10.838;2023-07-20T10:12:04;31.70;60.02
63407;SHT31;49543;45.892;10.838;2023-07-20T10:14:30;31.61;60.33
63407;SHT31;49543;45.892;10.838;2023-07-20T10:16:58;31.43;61.01
63407;SHT31;49543;45.892;10.838;2023-07-20T10:25:44;31.29;60.23
63407;SHT31;49543;45.892;10.838;2023-07-20T10:28:10;31.33;59.65
63407;SHT31;49543;45.892;10.838;2023-07-20T10:30:36;31.42;59.68
63407;SHT31;49543;45.892;10.838;2023-07-20T10:33:05;31.53;58.74
63407;SHT31;49543;45.892;10.838;2023-07-20T10:35:31;31.80;58.94
63407;SHT31;49543;45.892;10.838;2023-07-20T10:38:05;32.04;57.98
63407;SHT31;49543;45.892;10.838;2023-07-20T10:40:43;32.43;57.70
63407;SHT31;49543;45.892;10.838;2023-07-20T10:43:22;32.71;57.38
63407;SHT31;49543;45.892;10.838;2023-07-20T10:45:51;32.97;56.66
63407;SHT31;49543;45.892;10.838;2023-07-20T10:48:18;33.25;56.48
63407;SHT31;49543;45.892;10.838;2023-07-20T10:50:44;33.41;55.86
63407;SHT31;49543;45.892;10.838;2023-07-20T10:53:14;33.68;55.75
63407;SHT31;49543;45.892;10.838;2023-07-20T10:55:40;34.04;55.57
63407;SHT31;49543;45.892;10.838;2023-07-20T10:58:10;34.31;54.89
63407;SHT31;49543;45.892;10.838;2023-07-20T11:00:36;34.71;54.59
63407;SHT31;49543;45.892;10.838;2023-07-20T11:03:02;34.86;53.73
63407;SHT31;49543;45.892;10.838;2023-07-20T11:05:39;35.17;53.71
63407;SHT31;49543;45.892;10.838;2023-07-20T11:08:14;35.20;53.10
63407;SHT31;49543;45.892;10.838;2023-07-20T11:11:07;35.36;53.16
63407;SHT31;49543;45.892;10.838;2023-07-20T11:13:36;35.06;53.03
63407;SHT31;49543;45.892;10.838;2023-07-20T11:16:18;34.91;53.71
63407;SHT31;49543;45.892;10.838;2023-07-20T11:18:43;34.89;53.66
63407;SHT31;49543;45.892;10.838;2023-07-20T11:21:09;34.81;53.66
63407;SHT31;49543;45.892;10.838;2023-07-20T11:23:37;34.83;54.05
63407;SHT31;49543;45.892;10.838;2023-07-20T11:26:02;34.86;53.71
63407;SHT31;49543;45.892;10.838;2023-07-20T11:28:29;34.86;53.79
63407;SHT31;49543;45.892;10.838;2023-07-20T11:30:55;34.89;54.27
63407;SHT31;49543;45.892;10.838;2023-07-20T11:33:20;34.89;53.73
63407;SHT31;49543;45.892;10.838;2023-07-20T11:35:45;34.82;54.71
63407;SHT31;49543;45.892;10.838;2023-07-20T11:38:14;34.81;55.34
63407;SHT31;49543;45.892;10.838;2023-07-20T11:40:43;34.27;55.72
63407;SHT31;49543;45.892;10.838;2023-07-20T11:43:09;33.80;56.41
63407;SHT31;49543;45.892;10.838;2023-07-20T11:45:35;33.03;58.08
63407;SHT31;49543;45.892;10.838;2023-07-20T17:02:54;29.03;77.06
63407;SHT31;49543;45.892;10.838;2023-07-20T17:05:20;29.06;77.17
63407;SHT31;49543;45.892;10.838;2023-07-20T17:07:45;29.02;76.75
63407;SHT31;49543;45.892;10.838;2023-07-20T17:10:10;28.95;76.99
63407;SHT31;49543;45.892;10.838;2023-07-20T17:12:36;28.93;77.13
63407;SHT31;49543;45.892;10.838;2023-07-20T17:15:02;28.88;77.45
63407;SHT31;49543;45.892;10.838;2023-07-20T17:17:27;28.89;77.52
63407;SHT31;49543;45.892;10.838;2023-07-20T17:19:53;28.92;77.40
63407;SHT31;49543;45.892;10.838;2023-07-20T17:22:18;28.90;76.82
63407;SHT31;49543;45.892;10.838;2023-07-20T17:24:44;28.90;76.92
63407;SHT31;49543;45.892;10.838;2023-07-20T17:27:09;28.88;77.26
63407;SHT31;49543;45.892;10.838;2023-07-20T17:29:36;28.83;77.47
63407;SHT31;49543;45.892;10.838;2023-07-20T17:32:01;28.82;77.54
63407;SHT31;49543;45.892;10.838;2023-07-20T17:34:26;28.80;77.50
63407;SHT31;49543;45.892;10.838;2023-07-20T17:36:52;28.78;77.62
63407;SHT31;49543;45.892;10.838;2023-07-20T17:39:17;28.75;77.11
63407;SHT31;49543;45.892;10.838;2023-07-20T17:41:42;28.73;76.46
63407;SHT31;49543;45.892;10.838;2023-07-20T17:44:08;28.76;76.08
63407;SHT31;49543;45.892;10.838;2023-07-20T17:46:34;28.72;75.79
63407;SHT31;49543;45.892;10.838;2023-07-20T17:48:59;28.71;76.08
63407;SHT31;49543;45.892;10.838;2023-07-20T17:51:27;28.73;76.32
63407;SHT31;49543;45.892;10.838;2023-07-20T17:53:52;28.73;76.30
63407;SHT31;49543;45.892;10.838;2023-07-20T17:56:18;28.79;76.27
63407;SHT31;49543;45.892;10.838;2023-07-20T17:58:43;28.73;75.75
63407;SHT31;49543;45.892;10.838;2023-07-20T18:01:08;28.72;75.16
63407;SHT31;49543;45.892;10.838;2023-07-20T18:03:34;28.64;75.71
63407;SHT31;49543;45.892;10.838;2023-07-20T18:06:06;28.62;76.40
63407;SHT31;49543;45.892;10.838;2023-07-20T18:08:35;28.56;76.14
63407;SHT31;49543;45.892;10.838;2023-07-20T18:11:04;28.55;76.05
63407;SHT31;49543;45.892;10.838;2023-07-20T18:13:29;28.52;76.64
63407;SHT31;49543;45.892;10.838;2023-07-20T18:15:54;28.48;77.00
63407;SHT31;49543;45.892;10.838;2023-07-20T18:18:20;28.40;77.43
63407;SHT31;49543;45.892;10.838;2023-07-20T18:20:47;28.37;77.71
63407;SHT31;49543;45.892;10.838;2023-07-20T18:23:12;28.34;76.30
63407;SHT31;49543;45.892;10.838;2023-07-20T18:25:37;28.34;76.09
63407;SHT31;49543;45.892;10.838;2023-07-20T18:28:04;28.37;75.66
63407;SHT31;49543;45.892;10.838;2023-07-20T18:30:29;28.35;75.64
63407;SHT31;49543;45.892;10.838;2023-07-20T18:32:58;28.40;76.02
63407;SHT31;49543;45.892;10.838;2023-07-20T18:35:23;28.38;76.27
63407;SHT31;49543;45.892;10.838;2023-07-20T18:37:48;28.38;76.14
63407;SHT31;49543;45.892;10.838;2023-07-20T18:40:15;28.38;76.40
63407;SHT31;49543;45.892;10.838;2023-07-20T18:42:40;28.35;76.28
63407;SHT31;49543;45.892;10.838;2023-07-20T18:45:06;28.29;76.37
63407;SHT31;49543;45.892;10.838;2023-07-20T18:47:31;28.28;76.51
63407;SHT31;49543;45.892;10.838;2023-07-20T18:49:56;28.25;76.54
63407;SHT31;49543;45.892;10.838;2023-07-20T18:52:21;28.25;76.60
63407;SHT31;49543;45.892;10.838;2023-07-20T18:54:47;28.17;76.81
63407;SHT31;49543;45.892;10.838;2023-07-20T18:57:12;28.16;76.86
63407;SHT31;49543;45.892;10.838;2023-07-20T18:59:39;28.11;76.60
63407;SHT31;49543;45.892;10.838;2023-07-20T19:02:06;28.10;76.65
63407;SHT31;49543;45.892;10.838;2023-07-20T19:04:31;28.01;76.47
63407;SHT31;49543;45.892;10.838;2023-07-20T19:06:56;27.99;77.13
63407;SHT31;49543;45.892;10.838;2023-07-20T19:09:22;27.93;77.49
63407;SHT31;49543;45.892;10.838;2023-07-20T19:11:47;27.88;76.71
63407;SHT31;49543;45.892;10.838;2023-07-20T19:14:12;27.86;77.24
63407;SHT31;49543;45.892;10.838;2023-07-20T19:16:38;27.86;77.42
63407;SHT31;49543;45.892;10.838;2023-07-20T19:19:03;27.85;77.93
63407;SHT31;49543;45.892;10.838;2023-07-20T19:21:29;27.76;77.43
63407;SHT31;49543;45.892;10.838;2023-07-20T19:23:54;27.73;77.21
63407;SHT31;49543;45.892;10.838;2023-07-20T19:26:19;27.69;77.71
63407;SHT31;49543;45.892;10.838;2023-07-20T19:28:45;27.69;78.03
63407;SHT31;49543;45.892;10.838;2023-07-20T19:31:10;27.69;78.00
63407;SHT31;49543;45.892;10.838;2023-07-20T19:33:35;27.66;77.27
63407;SHT31;49543;45.892;10.838;2023-07-20T19:36:01;27.66;77.41
63407;SHT31;49543;45.892;10.838;2023-07-20T19:38:27;27.66;77.33
63407;SHT31;49543;45.892;10.838;2023-07-20T19:40:53;27.65;77.12
63407;SHT31;49543;45.892;10.838;2023-07-20T19:43:19;27.61;77.27
63407;SHT31;49543;45.892;10.838;2023-07-20T19:45:46;27.55;77.43
63407;SHT31;49543;45.892;10.838;2023-07-20T19:48:12;27.52;77.54
63407;SHT31;49543;45.892;10.838;2023-07-20T19:50:37;27.48;77.65
63407;SHT31;49543;45.892;10.838;2023-07-20T19:53:03;27.46;78.05
63407;SHT31;49543;45.892;10.838;2023-07-20T19:55:28;27.51;78.00
63407;SHT31;49543;45.892;10.838;2023-07-20T19:57:54;27.51;78.31
63407;SHT31;49543;45.892;10.838;2023-07-20T20:00:19;27.45;77.72
63407;SHT31;49543;45.892;10.838;2023-07-20T20:02:45;27.41;77.65
63407;SHT31;49543;45.892;10.838;2023-07-20T20:05:11;27.38;78.06
63407;SHT31;49543;45.892;10.838;2023-07-20T20:07:37;27.37;78.39
63407;SHT31;49543;45.892;10.838;2023-07-20T20:10:02;27.31;78.45
63407;SHT31;49543;45.892;10.838;2023-07-20T20:12:28;27.23;78.70
63407;SHT31;49543;45.892;10.838;2023-07-20T20:14:54;27.17;79.00
63407;SHT31;49543;45.892;10.838;2023-07-20T20:17:20;27.10;79.18
63407;SHT31;49543;45.892;10.838;2023-07-20T20:19:45;27.07;79.43
63407;SHT31;49543;45.892;10.838;2023-07-20T20:22:14;27.01;79.53
63407;SHT31;49543;45.892;10.838;2023-07-20T20:24:39;27.03;79.32
63407;SHT31;49543;45.892;10.838;2023-07-20T20:27:05;27.03;79.29
63407;SHT31;49543;45.892;10.838;2023-07-20T20:29:30;26.98;79.19
63407;SHT31;49543;45.892;10.838;2023-07-20T20:31:56;27.03;79.18
63407;SHT31;49543;45.892;10.838;2023-07-20T20:34:21;27.00;78.86
63407;SHT31;49543;45.892;10.838;2023-07-20T20:36:46;26.97;79.14
63407;SHT31;49543;45.892;10.838;2023-07-20T20:39:12;26.91;79.78
63407;SHT31;49543;45.892;10.838;2023-07-20T20:41:37;26.86;80.14
63407;SHT31;49543;45.892;10.838;2023-07-20T20:44:12;26.79;80.17
63407;SHT31;49543;45.892;10.838;2023-07-20T20:46:43;26.76;79.99
63407;SHT31;49543;45.892;10.838;2023-07-20T20:49:08;26.77;79.82
63407;SHT31;49543;45.892;10.838;2023-07-20T20:51:33;26.73;79.95
63407;SHT31;49543;45.892;10.838;2023-07-20T20:53:59;26.70;80.09
63407;SHT31;49543;45.892;10.838;2023-07-20T20:56:25;26.69;80.30
63407;SHT31;49543;45.892;10.838;2023-07-20T20:58:51;26.68;80.43
63407;SHT31;49543;45.892;10.838;2023-07-20T21:01:17;26.68;80.40
63407;SHT31;49543;45.892;10.838;2023-07-20T21:03:42;26.66;80.41
63407;SHT31;49543;45.892;10.838;2023-07-20T21:06:08;26.60;80.16
63407;SHT31;49543;45.892;10.838;2023-07-20T21:08:33;26.60;79.86
63407;SHT31;49543;45.892;10.838;2023-07-20T21:10:58;26.57;79.93
63407;SHT31;49543;45.892;10.838;2023-07-20T21:13:24;26.60;80.04
63407;SHT31;49543;45.892;10.838;2023-07-20T21:15:52;26.57;80.08
63407;SHT31;49543;45.892;10.838;2023-07-20T21:18:17;26.56;79.82
63407;SHT31;49543;45.892;10.838;2023-07-20T21:20:43;26.52;79.94
63407;SHT31;49543;45.892;10.838;2023-07-20T21:23:09;26.43;80.21
63407;SHT31;49543;45.892;10.838;2023-07-20T21:25:34;26.45;80.22
63407;SHT31;49543;45.892;10.838;2023-07-20T21:27:59;26.43;80.22
63407;SHT31;49543;45.892;10.838;2023-07-20T21:30:25;26.42;80.15
63407;SHT31;49543;45.892;10.838;2023-07-20T21:32:52;26.39;79.99
63407;SHT31;49543;45.892;10.838;2023-07-20T21:35:17;26.38;79.99
63407;SHT31;49543;45.892;10.838;2023-07-20T21:37:43;26.38;79.98
63407;SHT31;49543;45.892;10.838;2023-07-20T21:40:08;26.36;80.12
63407;SHT31;49543;45.892;10.838;2023-07-20T21:42:33;26.38;80.18
63407;SHT31;49543;45.892;10.838;2023-07-20T21:45:00;26.33;80.21
63407;SHT31;49543;45.892;10.838;2023-07-20T21:47:26;26.31;79.92
63407;SHT31;49543;45.892;10.838;2023-07-20T21:49:51;26.29;79.73
63407;SHT31;49543;45.892;10.838;2023-07-20T21:52:16;26.29;79.82
63407;SHT31;49543;45.892;10.838;2023-07-20T21:54:41;26.26;80.18
63407;SHT31;49543;45.892;10.838;2023-07-20T21:57:07;26.25;80.51
63407;SHT31;49543;45.892;10.838;2023-07-20T21:59:32;26.28;80.55
63407;SHT31;49543;45.892;10.838;2023-07-20T22:01:57;26.25;80.58
63407;SHT31;49543;45.892;10.838;2023-07-20T22:04:23;26.25;80.58
63407;SHT31;49543;45.892;10.838;2023-07-20T22:06:48;26.25;80.48
63407;SHT31;49543;45.892;10.838;2023-07-20T22:09:14;26.24;80.24
63407;SHT31;49543;45.892;10.838;2023-07-20T22:11:40;26.20;80.26
63407;SHT31;49543;45.892;10.838;2023-07-20T22:14:05;26.22;80.34
63407;SHT31;49543;45.892;10.838;2023-07-20T22:16:31;26.21;80.29
63407;SHT31;49543;45.892;10.838;2023-07-20T22:18:57;26.21;80.10
63407;SHT31;49543;45.892;10.838;2023-07-20T22:21:23;26.18;79.98
63407;SHT31;49543;45.892;10.838;2023-07-20T22:23:48;26.09;80.41
63407;SHT31;49543;45.892;10.838;2023-07-20T22:26:14;25.98;80.59
63407;SHT31;49543;45.892;10.838;2023-07-20T22:28:42;25.94;80.72
63407;SHT31;49543;45.892;10.838;2023-07-20T22:31:08;25.94;80.78
63407;SHT31;49543;45.892;10.838;2023-07-20T22:33:33;25.94;80.72
63407;SHT31;49543;45.892;10.838;2023-07-20T22:35:59;25.94;80.93
63407;SHT31;49543;45.892;10.838;2023-07-20T22:38:24;25.90;80.90
